sensor_id;sensor_type;location;lat;lon;timestamp;temperature;humidity
18101;DHT22;9177;49.156;8.142;2023-12-22T00:02:22;18.90;94.50
18101;DHT22;9177;49.156;8.142;2023-12-22T00:04:51;18.90;94.50
18101;DHT22;9177;49.156;8.142;2023-12-22T00:07:18;18.90;94.50
18101;DHT22;9177;49.156;8.142;2023-12-22T00:09:47;18.80;94.50
18101;DHT22;9177;49.156;8.142;2023-12-22T00:12:14;18.80;94.50
18101;DHT22;9177;49.156;8.142;2023-12-22T00:14:41;18.80;94.50
18101;DHT22;9177;49.156;8.142;2023-12-22T00:17:11;18.80;94.50
18101;DHT22;9177;49.156;8.142;2023-12-22T00:19:38;18.70;94.50
18101;DHT22;9177;49.156;8.142;2023-12-22T00:22:06;18.70;94.50
18101;DHT22;9177;49.156;8.142;2023-12-22T00:24:32;18.80;94.50
18101;DHT22;9177;49.156;8.142;2023-12-22T00:27:03;18.70;94.50
18101;DHT22;9177;49.156;8.142;2023-12-22T00:29:30;18.70;94.50
18101;DHT22;9177;49.156;8.142;2023-12-22T00:31:58;18.70;94.50
18101;DHT22;9177;49.156;8.142;2023-12-22T00:34:24;18.70;94.50
18101;DHT22;9177;49.156;8.142;2023-12-22T00:36:51;18.70;94.50
18101;DHT22;9177;49.156;8.142;2023-12-22T00:39:18;18.70;94.50
18101;DHT22;9177;49.156;8.142;2023-12-22T00:41:45;18.70;94.50
18101;DHT22;9177;49.156;8.142;2023-12-22T00:44:13;18.60;94.50
18101;DHT22;9177;49.156;8.142;2023-12-22T00:46:40;18.60;94.50
18101;DHT22;9177;49.156;8.142;2023-12-22T00:49:07;18.60;94.50
18101;DHT22;9177;49.156;8.142;2023-12-22T00:51:36;18.60;94.50
18101;DHT22;9177;49.156;8.142;2023-12-22T00:54:03;18.60;94.40
18101;DHT22;9177;49.156;8.142;2023-12-22T00:56:30;18.60;94.40
18101;DHT22;9177;49.156;8.142;2023-12-22T00:58:56;18.60;94.50
18101;DHT22;9177;49.156;8.142;2023-12-22T01:01:25;18.60;94.40
18101;DHT22;9177;49.156;8.142;2023-12-22T01:03:52;18.60;94.40
18101;DHT22;9177;49.156;8.142;2023-12-22T01:06:18;18.60;94.40
18101;DHT22;9177;49.156;8.142;2023-12-22T01:08:45;18.60;94.40
18101;DHT22;9177;49.156;8.142;2023-12-22T01:11:15;18.50;94.40
18101;DHT22;9177;49.156;8.142;2023-12-22T01:13:42;18.50;94.40
18101;DHT22;9177;49.156;8.142;2023-12-22T01:16:09;18.60;94.40
18101;DHT22;9177;49.156;8.142;2023-12-22T01:18:37;18.50;94.30
18101;DHT22;9177;49.156;8.142;2023-12-22T01:21:08;18.60;94.30
18101;DHT22;9177;49.156;8.142;2023-12-22T01:23:34;18.50;94.30
18101;DHT22;9177;49.156;8.142;2023-12-22T01:26:01;18.50;94.30
18101;DHT22;9177;49.156;8.142;2023-12-22T01:28:28;18.50;94.30
18101;DHT22;9177;49.156;8.142;2023-12-22T01:30:55;18.50;94.30
18101;DHT22;9177;49.156;8.142;2023-12-22T01:33:25;18.50;94.30
18101;DHT22;9177;49.156;8.142;2023-12-22T01:35:53;18.50;94.30
18101;DHT22;9177;49.156;8.142;2023-12-22T01:38:20;18.50;94.20
18101;DHT22;9177;49.156;8.142;2023-12-22T01:40:47;18.50;94.20
18101;DHT22;9177;49.156;8.142;2023-12-22T01:43:14;18.50;94.20
18101;DHT22;9177;49.156;8.142;2023-12-22T01:45:47;18.50;94.20
18101;DHT22;9177;49.156;8.142;2023-12-22T01:48:14;18.50;94.20
18101;DHT22;9177;49.156;8.142;2023-12-22T01:50:41;18.50;94.20
18101;DHT22;9177;49.156;8.142;2023-12-22T01:53:14;18.50;94.20
18101;DHT22;9177;49.156;8.142;2023-12-22T01:55:41;18.50;94.20
18101;DHT22;9177;49.156;8.142;2023-12-22T01:58:08;18.50;94.20
18101;DHT22;9177;49.156;8.142;2023-12-22T02:00:36;18.40;94.10
18101;DHT22;9177;49.156;8.142;2023-12-22T02:03:04;18.40;94.10
18101;DHT22;9177;49.156;8.142;2023-12-22T02:05:31;18.40;94.10
18101;DHT22;9177;49.156;8.142;2023-12-22T02:07:57;18.40;94.10
18101;DHT22;9177;49.156;8.142;2023-12-22T02:10:26;18.40;94.10
18101;DHT22;9177;49.156;8.142;2023-12-22T02:12:53;18.40;94.10
18101;DHT22;9177;49.156;8.142;2023-12-22T02:15:20;18.40;94.10
18101;DHT22;9177;49.156;8.142;2023-12-22T02:17:51;18.40;94.10
18101;DHT22;9177;49.156;8.142;2023-12-22T02:20:22;18.40;94.00
18101;DHT22;9177;49.156;8.142;2023-12-22T02:22:52;18.40;94.00
18101;DHT22;9177;49.156;8.142;2023-12-22T02:25:19;18.40;94.00
18101;DHT22;9177;49.156;8.142;2023-12-22T02:27:48;18.40;94.00
18101;DHT22;9177;49.156;8.142;2023-12-22T02:30:24;18.40;94.00
18101;DHT22;9177;49.156;8.142;2023-12-22T02:32:56;18.40;94.00
18101;DHT22;9177;49.156;8.142;2023-12-22T02:35:26;18.40;94.00
18101;DHT22;9177;49.156;8.142;2023-12-22T02:37:57;18.40;94.00
18101;DHT22;9177;49.156;8.142;2023-12-22T02:40:27;18.40;94.00
18101;DHT22;9177;49.156;8.142;2023-12-22T02:42:54;18.40;94.00
18101;DHT22;9177;49.156;8.142;2023-12-22T02:45:21;18.40;94.00
18101;DHT22;9177;49.156;8.142;2023-12-22T02:47:49;18.40;94.00
18101;DHT22;9177;49.156;8.142;2023-12-22T02:50:16;18.40;93.90
18101;DHT22;9177;49.156;8.142;2023-12-22T02:52:43;18.40;93.90
18101;DHT22;9177;49.156;8.142;2023-12-22T02:55:11;18.40;93.90
18101;DHT22;9177;49.156;8.142;2023-12-22T02:57:38;18.40;93.90
18101;DHT22;9177;49.156;8.142;2023-12-22T03:00:06;18.30;93.90
18101;DHT22;9177;49.156;8.142;2023-12-22T03:02:36;18.30;93.80
18101;DHT22;9177;49.156;8.142;2023-12-22T03:05:04;18.40;93.90
18101;DHT22;9177;49.156;8.142;2023-12-22T03:07:34;18.30;93.80
18101;DHT22;9177;49.156;8.142;2023-12-22T03:10:01;18.30;93.80
18101;DHT22;9177;49.156;8.142;2023-12-22T03:12:29;18.30;93.80
18101;DHT22;9177;49.156;8.142;2023-12-22T03:14:56;18.30;93.80
18101;DHT22;9177;49.156;8.142;2023-12-22T03:17:23;18.30;93.80
18101;DHT22;9177;49.156;8.142;2023-12-22T03:19:50;18.30;93.70
18101;DHT22;9177;49.156;8.142;2023-12-22T03:22:16;18.30;93.70
18101;DHT22;9177;49.156;8.142;2023-12-22T03:24:43;18.30;93.70
18101;DHT22;9177;49.156;8.142;2023-12-22T03:27:13;18.30;93.70
18101;DHT22;9177;49.156;8.142;2023-12-22T03:29:46;18.30;93.70
18101;DHT22;9177;49.156;8.142;2023-12-22T03:32:12;18.30;93.70
18101;DHT22;9177;49.156;8.142;2023-12-22T03:34:39;18.30;93.70
18101;DHT22;9177;49.156;8.142;2023-12-22T03:37:06;18.30;93.70
18101;DHT22;9177;49.156;8.142;2023-12-22T03:39:33;18.30;93.70
18101;DHT22;9177;49.156;8.142;2023-12-22T03:42:00;18.30;93.70
18101;DHT22;9177;49.156;8.142;2023-12-22T03:44:27;18.30;93.70
18101;DHT22;9177;49.156;8.142;2023-12-22T03:46:58;18.30;93.70
18101;DHT22;9177;49.156;8.142;2023-12-22T03:49:24;18.30;93.70
18101;DHT22;9177;49.156;8.142;2023-12-22T03:51:54;18.30;93.70
18101;DHT22;9177;49.156;8.142;2023-12-22T03:54:21;18.30;93.70
18101;DHT22;9177;49.156;8.142;2023-12-22T03:56:48;18.30;93.70
18101;DHT22;9177;49.156;8.142;2023-12-22T03:59:17;18.30;93.70
18101;DHT22;9177;49.156;8.142;2023-12-22T04:01:50;18.30;93.70
18101;DHT22;9177;49.156;8.142;2023-12-22T04:04:19;18.30;93.70
18101;DHT22;9177;49.156;8.142;2023-12-22T04:06:47;18.30;93.70
18101;DHT22;9177;49.156;8.142;2023-12-22T04:09:14;18.30;93.70
18101;DHT22;9177;49.156;8.142;2023-12-22T04:11:42;18.30;93.90
18101;DHT22;9177;49.156;8.142;2023-12-22T04:14:09;18.30;93.70
18101;DHT22;9177;49.156;8.142;2023-12-22T04:16:39;18.30;93.70
18101;DHT22;9177;49.156;8.142;2023-12-22T04:19:06;18.50;93.60
18101;DHT22;9177;49.156;8.142;2023-12-22T04:21:34;18.70;93.30
18101;DHT22;9177;49.156;8.142;2023-12-22T04:24:01;18.90;93.10
18101;DHT22;9177;49.156;8.142;2023-12-22T04:26:28;19.20;92.80
18101;DHT22;9177;49.156;8.142;2023-12-22T04:28:54;19.50;92.50
18101;DHT22;9177;49.156;8.142;2023-12-22T04:31:21;19.70;92.10
18101;DHT22;9177;49.156;8.142;2023-12-22T04:33:49;19.90;91.90
18101;DHT22;9177;49.156;8.142;2023-12-22T04:36:18;20.10;91.70
18101;DHT22;9177;49.156;8.142;2023-12-22T04:38:49;20.20;91.50
18101;DHT22;9177;49.156;8.142;2023-12-22T04:41:15;20.40;91.30
18101;DHT22;9177;49.156;8.142;2023-12-22T04:43:42;20.40;91.20
18101;DHT22;9177;49.156;8.142;2023-12-22T04:46:09;20.50;91.10
18101;DHT22;9177;49.156;8.142;2023-12-22T04:48:36;20.60;91.00
18101;DHT22;9177;49.156;8.142;2023-12-22T04:51:05;20.60;90.90
18101;DHT22;9177;49.156;8.142;2023-12-22T04:53:32;20.70;90.90
18101;DHT22;9177;49.156;8.142;2023-12-22T04:56:00;20.70;90.90
18101;DHT22;9177;49.156;8.142;2023-12-22T04:58:28;20.60;90.90
18101;DHT22;9177;49.156;8.142;2023-12-22T05:00:54;20.60;90.90
18101;DHT22;9177;49.156;8.142;2023-12-22T05:03:21;20.60;90.90
18101;DHT22;9177;49.156;8.142;2023-12-22T05:05:48;20.50;90.90
18101;DHT22;9177;49.156;8.142;2023-12-22T05:08:15;20.40;91.00
18101;DHT22;9177;49.156;8.142;2023-12-22T05:10:44;20.30;91.10
18101;DHT22;9177;49.156;8.142;2023-12-22T05:13:12;20.20;91.30
18101;DHT22;9177;49.156;8.142;2023-12-22T05:15:41;20.10;91.30
18101;DHT22;9177;49.156;8.142;2023-12-22T05:18:09;20.00;91.50
18101;DHT22;9177;49.156;8.142;2023-12-22T05:20:38;19.90;91.50
18101;DHT22;9177;49.156;8.142;2023-12-22T05:23:04;19.80;91.60
18101;DHT22;9177;49.156;8.142;2023-12-22T05:25:31;19.80;91.70
18101;DHT22;9177;49.156;8.142;2023-12-22T05:27:58;19.70;91.80
18101;DHT22;9177;49.156;8.142;2023-12-22T05:30:26;19.70;91.90
18101;DHT22;9177;49.156;8.142;2023-12-22T05:32:53;19.60;91.90
18101;DHT22;9177;49.156;8.142;2023-12-22T05:35:21;19.50;91.90
18101;DHT22;9177;49.156;8.142;2023-12-22T05:37:50;19.50;92.00
18101;DHT22;9177;49.156;8.142;2023-12-22T05:40:17;19.50;92.10
18101;DHT22;9177;49.156;8.142;2023-12-22T05:42:47;19.40;92.10
18101;DHT22;9177;49.156;8.142;2023-12-22T05:45:14;19.40;92.20
18101;DHT22;9177;49.156;8.142;2023-12-22T05:47:42;19.30;92.60
18101;DHT22;9177;49.156;8.142;2023-12-22T05:50:09;19.30;92.30
18101;DHT22;9177;49.156;8.142;2023-12-22T05:52:39;19.20;92.30
18101;DHT22;9177;49.156;8.142;2023-12-22T05:55:07;19.20;92.30
18101;DHT22;9177;49.156;8.142;2023-12-22T05:57:34;19.20;92.40
18101;DHT22;9177;49.156;8.142;2023-12-22T06:00:04;19.10;92.40
18101;DHT22;9177;49.156;8.142;2023-12-22T06:02:33;19.10;92.40
18101;DHT22;9177;49.156;8.142;2023-12-22T06:05:01;19.10;92.40
18101;DHT22;9177;49.156;8.142;2023-12-22T06:07:27;19.10;92.40
18101;DHT22;9177;49.156;8.142;2023-12-22T06:09:56;19.20;92.40
18101;DHT22;9177;49.156;8.142;2023-12-22T06:12:23;19.20;92.30
18101;DHT22;9177;49.156;8.142;2023-12-22T06:14:50;19.30;92.20
18101;DHT22;9177;49.156;8.142;2023-12-22T06:17:17;19.30;92.10
18101;DHT22;9177;49.156;8.142;2023-12-22T06:19:44;19.40;92.10
18101;DHT22;9177;49.156;8.142;2023-12-22T06:22:14;19.50;92.00
18101;DHT22;9177;49.156;8.142;2023-12-22T06:24:43;19.50;91.90
18101;DHT22;9177;49.156;8.142;2023-12-22T06:27:10;19.60;91.90
18101;DHT22;9177;49.156;8.142;2023-12-22T06:29:38;19.70;91.80
18101;DHT22;9177;49.156;8.142;2023-12-22T06:32:08;19.70;91.70
18101;DHT22;9177;49.156;8.142;2023-12-22T06:34:35;19.80;91.60
18101;DHT22;9177;49.156;8.142;2023-12-22T06:37:04;19.80;91.50
18101;DHT22;9177;49.156;8.142;2023-12-22T06:39:37;19.80;91.50
18101;DHT22;9177;49.156;8.142;2023-12-22T06:42:05;19.90;91.50
18101;DHT22;9177;49.156;8.142;2023-12-22T06:44:36;19.80;91.50
18101;DHT22;9177;49.156;8.142;2023-12-22T06:47:03;19.80;91.50
18101;DHT22;9177;49.156;8.142;2023-12-22T06:49:30;19.80;91.50
18101;DHT22;9177;49.156;8.142;2023-12-22T06:51:57;19.80;91.50
18101;DHT22;9177;49.156;8.142;2023-12-22T06:54:24;19.80;91.50
18101;DHT22;9177;49.156;8.142;2023-12-22T06:56:52;19.80;91.50
18101;DHT22;9177;49.156;8.142;2023-12-22T06:59:19;19.80;91.60
18101;DHT22;9177;49.156;8.142;2023-12-22T07:01:46;19.70;91.50
18101;DHT22;9177;49.156;8.142;2023-12-22T07:04:12;19.70;91.60
18101;DHT22;9177;49.156;8.142;2023-12-22T07:06:39;19.70;91.60
18101;DHT22;9177;49.156;8.142;2023-12-22T07:09:32;19.70;91.70
18101;DHT22;9177;49.156;8.142;2023-12-22T07:12:00;19.70;91.70
18101;DHT22;9177;49.156;8.142;2023-12-22T07:14:29;19.70;91.70
18101;DHT22;9177;49.156;8.142;2023-12-22T07:16:56;19.60;91.70
18101;DHT22;9177;49.156;8.142;2023-12-22T07:19:25;19.60;91.70
18101;DHT22;9177;49.156;8.142;2023-12-22T07:21:52;19.60;91.80
18101;DHT22;9177;49.156;8.142;2023-12-22T07:24:19;19.50;91.80
18101;DHT22;9177;49.156;8.142;2023-12-22T07:26:46;19.50;91.80
18101;DHT22;9177;49.156;8.142;2023-12-22T07:29:14;19.50;91.90
18101;DHT22;9177;49.156;8.142;2023-12-22T07:31:41;19.50;91.90
18101;DHT22;9177;49.156;8.142;2023-12-22T07:34:11;19.50;91.90
18101;DHT22;9177;49.156;8.142;2023-12-22T07:36:37;19.50;91.90
18101;DHT22;9177;49.156;8.142;2023-12-22T07:39:04;19.50;92.00
18101;DHT22;9177;49.156;8.142;2023-12-22T07:41:32;19.40;92.00
18101;DHT22;9177;49.156;8.142;2023-12-22T07:43:59;19.40;92.10
18101;DHT22;9177;49.156;8.142;2023-12-22T07:46:30;19.40;92.00
18101;DHT22;9177;49.156;8.142;2023-12-22T07:48:57;19.40;92.00
18101;DHT22;9177;49.156;8.142;2023-12-22T07:51:24;19.40;92.00
18101;DHT22;9177;49.156;8.142;2023-12-22T07:53:51;19.40;92.10
18101;DHT22;9177;49.156;8.142;2023-12-22T07:56:18;19.40;92.10
18101;DHT22;9177;49.156;8.142;2023-12-22T07:58:44;19.40;92.10
18101;DHT22;9177;49.156;8.142;2023-12-22T08:01:12;19.40;92.10
18101;DHT22;9177;49.156;8.142;2023-12-22T08:03:42;19.40;92.10
18101;DHT22;9177;49.156;8.142;2023-12-22T08:06:09;19.40;92.10
18101;DHT22;9177;49.156;8.142;2023-12-22T08:08:39;19.40;92.10
18101;DHT22;9177;49.156;8.142;2023-12-22T08:11:05;19.40;92.10
18101;DHT22;9177;49.156;8.142;2023-12-22T08:13:33;19.40;92.10
18101;DHT22;9177;49.156;8.142;2023-12-22T08:16:00;19.40;92.10
18101;DHT22;9177;49.156;8.142;2023-12-22T08:18:28;19.40;92.10
18101;DHT22;9177;49.156;8.142;2023-12-22T08:20:56;19.40;92.10
18101;DHT22;9177;49.156;8.142;2023-12-22T08:23:23;19.40;92.10
18101;DHT22;9177;49.156;8.142;2023-12-22T08:25:50;19.40;92.10
18101;DHT22;9177;49.156;8.142;2023-12-22T08:28:17;19.40;92.10
18101;DHT22;9177;49.156;8.142;2023-12-22T08:30:43;19.40;92.10
18101;DHT22;9177;49.156;8.142;2023-12-22T08:33:10;19.40;92.10
18101;DHT22;9177;49.156;8.142;2023-12-22T08:35:38;19.40;92.10
18101;DHT22;9177;49.156;8.142;2023-12-22T08:38:06;19.40;92.10
18101;DHT22;9177;49.156;8.142;2023-12-22T08:40:33;19.40;92.10
18101;DHT22;9177;49.156;8.142;2023-12-22T08:43:01;19.50;92.10
18101;DHT22;9177;49.156;8.142;2023-12-22T08:45:29;19.40;92.00
18101;DHT22;9177;49.156;8.142;2023-12-22T08:47:55;19.50;92.00
18101;DHT22;9177;49.156;8.142;2023-12-22T08:50:25;19.50;92.10
18101;DHT22;9177;49.156;8.142;2023-12-22T08:52:52;19.50;92.00
18101;DHT22;9177;49.156;8.142;2023-12-22T08:55:22;19.50;92.00
18101;DHT22;9177;49.156;8.142;2023-12-22T08:57:50;19.50;92.00
18101;DHT22;9177;49.156;8.142;2023-12-22T09:00:18;19.50;92.00
18101;DHT22;9177;49.156;8.142;2023-12-22T09:02:45;19.50;92.00
18101;DHT22;9177;49.156;8.142;2023-12-22T09:05:12;19.50;92.00
18101;DHT22;9177;49.156;8.142;2023-12-22T09:07:39;19.50;91.90
18101;DHT22;9177;49.156;8.142;2023-12-22T09:10:06;19.50;91.90
18101;DHT22;9177;49.156;8.142;2023-12-22T09:12:34;19.50;91.90
18101;DHT22;9177;49.156;8.142;2023-12-22T09:15:01;19.50;91.90
18101;DHT22;9177;49.156;8.142;2023-12-22T09:17:29;19.50;91.90
18101;DHT22;9177;49.156;8.142;2023-12-22T09:19:56;19.50;91.90
18101;DHT22;9177;49.156;8.142;2023-12-22T09:22:23;19.50;91.90
18101;DHT22;9177;49.156;8.142;2023-12-22T09:24:50;19.50;91.90
18101;DHT22;9177;49.156;8.142;2023-12-22T09:27:17;19.50;91.90
18101;DHT22;9177;49.156;8.142;2023-12-22T09:29:45;19.50;91.90
18101;DHT22;9177;49.156;8.142;2023-12-22T09:32:13;19.50;91.90
18101;DHT22;9177;49.156;8.142;2023-12-22T09:34:40;19.60;91.90
18101;DHT22;9177;49.156;8.142;2023-12-22T09:37:09;19.60;91.90
18101;DHT22;9177;49.156;8.142;2023-12-22T09:39:36;19.60;91.90
18101;DHT22;9177;49.156;8.142;2023-12-22T09:42:05;19.50;91.80
18101;DHT22;9177;49.156;8.142;2023-12-22T09:44:32;19.50;91.90
18101;DHT22;9177;49.156;8.142;2023-12-22T09:47:04;19.50;91.80
18101;DHT22;9177;49.156;8.142;2023-12-22T09:49:33;19.60;91.90
18101;DHT22;9177;49.156;8.142;2023-12-22T09:52:04;19.60;91.90
18101;DHT22;9177;49.156;8.142;2023-12-22T09:54:34;19.60;91.90
18101;DHT22;9177;49.156;8.142;2023-12-22T09:57:05;19.50;91.90
18101;DHT22;9177;49.156;8.142;2023-12-22T09:59:32;19.60;91.90
18101;DHT22;9177;49.156;8.142;2023-12-22T10:02:03;19.60;91.90
18101;DHT22;9177;49.156;8.142;2023-12-22T10:04:31;19.60;91.90
18101;DHT22;9177;49.156;8.142;2023-12-22T10:07:01;19.60;91.90
18101;DHT22;9177;49.156;8.142;2023-12-22T10:09:30;19.60;91.90
18101;DHT22;9177;49.156;8.142;2023-12-22T10:11:58;19.60;91.90
18101;DHT22;9177;49.156;8.142;2023-12-22T10:14:26;19.60;91.90
18101;DHT22;9177;49.156;8.142;2023-12-22T10:16:56;19.60;91.90
18101;DHT22;9177;49.156;8.142;2023-12-22T10:19:24;19.60;91.90
18101;DHT22;9177;49.156;8.142;2023-12-22T10:21:51;19.60;91.90
18101;DHT22;9177;49.156;8.142;2023-12-22T10:24:45;19.60;91.90
18101;DHT22;9177;49.156;8.142;2023-12-22T10:27:15;19.60;91.90
18101;DHT22;9177;49.156;8.142;2023-12-22T10:29:42;19.60;91.90
18101;DHT22;9177;49.156;8.142;2023-12-22T10:32:09;19.60;91.90
18101;DHT22;9177;49.156;8.142;2023-12-22T10:34:37;19.60;91.90
18101;DHT22;9177;49.156;8.142;2023-12-22T10:37:04;19.60;91.90
18101;DHT22;9177;49.156;8.142;2023-12-22T10:39:31;19.60;92.00
18101;DHT22;9177;49.156;8.142;2023-12-22T10:42:01;19.60;92.00
18101;DHT22;9177;49.156;8.142;2023-12-22T10:44:35;19.60;92.00
18101;DHT22;9177;49.156;8.142;2023-12-22T10:47:06;19.60;92.00
18101;DHT22;9177;49.156;8.142;2023-12-22T10:49:33;19.60;92.00
18101;DHT22;9177;49.156;8.142;2023-12-22T10:52:05;19.60;92.10
18101;DHT22;9177;49.156;8.142;2023-12-22T10:54:32;19.60;92.10
18101;DHT22;9177;49.156;8.142;2023-12-22T10:56:59;19.60;92.10
18101;DHT22;9177;49.156;8.142;2023-12-22T10:59:29;19.50;92.10
18101;DHT22;9177;49.156;8.142;2023-12-22T11:01:57;19.50;92.10
18101;DHT22;9177;49.156;8.142;2023-12-22T11:04:29;19.60;92.10
18101;DHT22;9177;49.156;8.142;2023-12-22T11:06:57;19.60;92.10
18101;DHT22;9177;49.156;8.142;2023-12-22T11:09:31;19.60;92.20
18101;DHT22;9177;49.156;8.142;2023-12-22T11:11:59;19.60;92.50
18101;DHT22;9177;49.156;8.142;2023-12-22T11:14:29;19.60;92.20
18101;DHT22;9177;49.156;8.142;2023-12-22T11:16:57;19.60;92.20
18101;DHT22;9177;49.156;8.142;2023-12-22T11:19:27;19.60;92.20
18101;DHT22;9177;49.156;8.142;2023-12-22T11:21:57;19.60;92.30
18101;DHT22;9177;49.156;8.142;2023-12-22T11:24:29;19.60;92.20
18101;DHT22;9177;49.156;8.142;2023-12-22T11:27:01;19.60;92.20
18101;DHT22;9177;49.156;8.142;2023-12-22T11:29:29;19.60;92.30
18101;DHT22;9177;49.156;8.142;2023-12-22T11:31:58;19.60;92.30
18101;DHT22;9177;49.156;8.142;2023-12-22T11:34:28;19.60;92.30
18101;DHT22;9177;49.156;8.142;2023-12-22T11:36:57;19.60;92.30
18101;DHT22;9177;49.156;8.142;2023-12-22T11:39:25;19.60;92.30
18101;DHT22;9177;49.156;8.142;2023-12-22T11:41:53;19.60;92.40
18101;DHT22;9177;49.156;8.142;2023-12-22T11:44:21;19.60;92.40
18101;DHT22;9177;49.156;8.142;2023-12-22T11:46:48;19.50;92.40
18101;DHT22;9177;49.156;8.142;2023-12-22T11:49:15;19.50;92.40
18101;DHT22;9177;49.156;8.142;2023-12-22T11:51:45;19.50;92.40
18101;DHT22;9177;49.156;8.142;2023-12-22T11:54:43;19.50;92.50
18101;DHT22;9177;49.156;8.142;2023-12-22T11:57:35;19.50;92.50
18101;DHT22;9177;49.156;8.142;2023-12-22T12:00:07;19.50;92.50
18101;DHT22;9177;49.156;8.142;2023-12-22T12:02:35;19.50;92.50
18101;DHT22;9177;49.156;8.142;2023-12-22T12:05:04;19.50;92.50
18101;DHT22;9177;49.156;8.142;2023-12-22T12:07:43;19.50;92.50
18101;DHT22;9177;49.156;8.142;2023-12-22T12:10:12;19.50;92.60
18101;DHT22;9177;49.156;8.142;2023-12-22T12:12:41;19.50;92.60
18101;DHT22;9177;49.156;8.142;2023-12-22T12:15:10;19.50;92.60
18101;DHT22;9177;49.156;8.142;2023-12-22T12:17:43;19.50;92.60
18101;DHT22;9177;49.156;8.142;2023-12-22T12:20:14;19.50;92.60
18101;DHT22;9177;49.156;8.142;2023-12-22T12:22:43;19.50;92.60
18101;DHT22;9177;49.156;8.142;2023-12-22T12:25:12;19.50;92.60
18101;DHT22;9177;49.156;8.142;2023-12-22T12:27:42;19.50;92.60
18101;DHT22;9177;49.156;8.142;2023-12-22T12:30:13;19.50;92.60
18101;DHT22;9177;49.156;8.142;2023-12-22T12:32:44;19.50;93.00
18101;DHT22;9177;49.156;8.142;2023-12-22T12:35:12;19.50;92.60
18101;DHT22;9177;49.156;8.142;2023-12-22T12:37:40;19.50;92.60
18101;DHT22;9177;49.156;8.142;2023-12-22T12:40:11;19.50;92.60
18101;DHT22;9177;49.156;8.142;2023-12-22T12:42:38;19.50;92.60
18101;DHT22;9177;49.156;8.142;2023-12-22T12:45:07;19.50;92.60
18101;DHT22;9177;49.156;8.142;2023-12-22T12:47:34;19.50;92.60
18101;DHT22;9177;49.156;8.142;2023-12-22T12:50:02;19.50;92.70
18101;DHT22;9177;49.156;8.142;2023-12-22T12:52:29;19.50;92.70
18101;DHT22;9177;49.156;8.142;2023-12-22T12:54:57;19.50;92.70
18101;DHT22;9177;49.156;8.142;2023-12-22T12:57:25;19.50;92.70
18101;DHT22;9177;49.156;8.142;2023-12-22T12:59:52;19.50;92.70
18101;DHT22;9177;49.156;8.142;2023-12-22T13:02:23;19.50;92.70
18101;DHT22;9177;49.156;8.142;2023-12-22T13:04:50;19.50;92.70
18101;DHT22;9177;49.156;8.142;2023-12-22T13:07:26;19.50;92.70
18101;DHT22;9177;49.156;8.142;2023-12-22T13:09:53;19.50;92.70
18101;DHT22;9177;49.156;8.142;2023-12-22T13:12:22;19.50;92.70
18101;DHT22;9177;49.156;8.142;2023-12-22T13:14:52;19.50;92.70
18101;DHT22;9177;49.156;8.142;2023-12-22T13:17:20;19.60;92.70
18101;DHT22;9177;49.156;8.142;2023-12-22T13:19:48;19.60;92.70
18101;DHT22;9177;49.156;8.142;2023-12-22T13:22:16;19.60;92.70
18101;DHT22;9177;49.156;8.142;2023-12-22T13:24:54;19.60;92.70
18101;DHT22;9177;49.156;8.142;2023-12-22T13:27:22;19.60;92.70
18101;DHT22;9177;49.156;8.142;2023-12-22T13:29:52;19.60;93.00
18101;DHT22;9177;49.156;8.142;2023-12-22T13:32:23;19.60;92.70
18101;DHT22;9177;49.156;8.142;2023-12-22T13:34:53;19.60;92.70
18101;DHT22;9177;49.156;8.142;2023-12-22T13:37:20;19.60;92.70
18101;DHT22;9177;49.156;8.142;2023-12-22T13:39:48;19.60;92.70
18101;DHT22;9177;49.156;8.142;2023-12-22T13:42:17;19.50;92.70
18101;DHT22;9177;49.156;8.142;2023-12-22T13:44:45;19.60;92.70
18101;DHT22;9177;49.156;8.142;2023-12-22T13:47:16;19.60;92.70
18101;DHT22;9177;49.156;8.142;2023-12-22T13:49:43;19.50;92.70
18101;DHT22;9177;49.156;8.142;2023-12-22T13:52:31;19.50;92.70
18101;DHT22;9177;49.156;8.142;2023-12-22T13:55:00;19.50;92.80
18101;DHT22;9177;49.156;8.142;2023-12-22T13:57:29;19.50;92.80
18101;DHT22;9177;49.156;8.142;2023-12-22T13:59:56;19.50;92.80
18101;DHT22;9177;49.156;8.142;2023-12-22T14:02:23;19.50;92.80
18101;DHT22;9177;49.156;8.142;2023-12-22T14:04:50;19.50;92.80
18101;DHT22;9177;49.156;8.142;2023-12-22T14:07:17;19.50;92.80
18101;DHT22;9177;49.156;8.142;2023-12-22T14:09:46;19.50;92.80
18101;DHT22;9177;49.156;8.142;2023-12-22T14:12:12;19.50;92.80
18101;DHT22;9177;49.156;8.142;2023-12-22T14:14:40;19.50;92.80
18101;DHT22;9177;49.156;8.142;2023-12-22T14:17:07;19.50;92.80
18101;DHT22;9177;49.156;8.142;2023-12-22T14:19:34;19.50;92.80
18101;DHT22;9177;49.156;8.142;2023-12-22T14:22:00;19.50;92.90
18101;DHT22;9177;49.156;8.142;2023-12-22T14:24:28;19.50;92.90
18101;DHT22;9177;49.156;8.142;2023-12-22T14:26:58;19.50;92.90
18101;DHT22;9177;49.156;8.142;2023-12-22T14:29:25;19.50;92.90
18101;DHT22;9177;49.156;8.142;2023-12-22T14:31:52;19.50;92.90
18101;DHT22;9177;49.156;8.142;2023-12-22T14:34:19;19.50;92.90
18101;DHT22;9177;49.156;8.142;2023-12-22T14:36:46;19.50;92.90
18101;DHT22;9177;49.156;8.142;2023-12-22T14:39:12;19.50;92.90
18101;DHT22;9177;49.156;8.142;2023-12-22T14:41:40;19.50;92.90
18101;DHT22;9177;49.156;8.142;2023-12-22T14:44:10;19.50;92.90
18101;DHT22;9177;49.156;8.142;2023-12-22T14:46:40;19.50;92.90
18101;DHT22;9177;49.156;8.142;2023-12-22T14:49:09;19.50;92.90
18101;DHT22;9177;49.156;8.142;2023-12-22T14:51:37;19.50;92.90
18101;DHT22;9177;49.156;8.142;2023-12-22T14:54:05;19.50;92.90
18101;DHT22;9177;49.156;8.142;2023-12-22T14:56:32;19.50;92.90
18101;DHT22;9177;49.156;8.142;2023-12-22T14:59:01;19.50;92.90
18101;DHT22;9177;49.156;8.142;2023-12-22T15:01:30;19.50;92.90
18101;DHT22;9177;49.156;8.142;2023-12-22T15:03:58;19.50;92.90
18101;DHT22;9177;49.156;8.142;2023-12-22T15:06:25;19.50;92.90
18101;DHT22;9177;49.156;8.142;2023-12-22T15:08:52;19.50;92.90
18101;DHT22;9177;49.156;8.142;2023-12-22T15:11:22;19.50;92.90
18101;DHT22;9177;49.156;8.142;2023-12-22T15:13:49;19.50;92.90
18101;DHT22;9177;49.156;8.142;2023-12-22T15:16:18;19.50;92.90
18101;DHT22;9177;49.156;8.142;2023-12-22T15:18:52;19.50;92.90
18101;DHT22;9177;49.156;8.142;2023-12-22T15:21:19;19.50;92.90
18101;DHT22;9177;49.156;8.142;2023-12-22T15:23:47;19.50;92.90
18101;DHT22;9177;49.156;8.142;2023-12-22T15:26:20;19.50;92.90
18101;DHT22;9177;49.156;8.142;2023-12-22T15:28:46;19.50;92.90
18101;DHT22;9177;49.156;8.142;2023-12-22T15:31:16;19.50;92.90
18101;DHT22;9177;49.156;8.142;2023-12-22T15:33:43;19.50;92.90
18101;DHT22;9177;49.156;8.142;2023-12-22T15:36:17;19.50;92.90
18101;DHT22;9177;49.156;8.142;2023-12-22T15:38:44;19.50;92.90
18101;DHT22;9177;49.156;8.142;2023-12-22T15:41:11;19.50;92.90
18101;DHT22;9177;49.156;8.142;2023-12-22T15:43:39;19.50;92.90
18101;DHT22;9177;49.156;8.142;2023-12-22T15:46:06;19.50;92.90
18101;DHT22;9177;49.156;8.142;2023-12-22T15:48:33;19.50;92.90
18101;DHT22;9177;49.156;8.142;2023-12-22T15:51:05;19.50;92.90
18101;DHT22;9177;49.156;8.142;2023-12-22T15:53:47;19.50;92.90